createdAt,value
2022-07-31T00:00:28.956Z,15.75
2022-07-31T00:02:57.491Z,15.27
2022-07-31T00:05:26.758Z,15.23
2022-07-31T00:07:55.297Z,15.52
2022-07-31T00:10:24.013Z,14.95
2022-07-31T00:12:53.856Z,17.75
2022-07-31T00:15:22.573Z,15.60
2022-07-31T00:17:50.929Z,16.45
2022-07-31T00:20:20.696Z,16.42
2022-07-31T00:22:50.565Z,15.55
2022-07-31T00:25:20.044Z,16.48
2022-07-31T00:27:48.258Z,16.88
2022-07-31T00:30:17.894Z,15.82
2022-07-31T00:32:46.493Z,16.77
2022-07-31T00:35:17.494Z,17.88
2022-07-31T00:37:45.923Z,15.57
2022-07-31T00:40:18.032Z,16.80
2022-07-31T00:42:46.275Z,16.55
2022-07-31T00:45:15.519Z,15.35
2022-07-31T00:47:45.213Z,17.52
2022-07-31T00:50:14.092Z,16.10
2022-07-31T00:52:42.410Z,15.45
2022-07-31T00:55:11.214Z,15.27
2022-07-31T00:57:39.335Z,15.57
2022-07-31T01:00:09.144Z,16.13
2022-07-31T01:02:38.407Z,15.68
2022-07-31T01:05:18.842Z,15.25
2022-07-31T01:07:48.832Z,15.05
2022-07-31T01:10:37.220Z,15.57
2022-07-31T01:13:11.775Z,16.20
2022-07-31T01:15:41.770Z,15.93
2022-07-31T01:18:12.304Z,15.73
2022-07-31T01:20:49.730Z,15.32
2022-07-31T01:23:54.891Z,15.75
2022-07-31T01:26:39.012Z,16.52
2022-07-31T01:29:19.957Z,16.40
2022-07-31T01:31:57.837Z,16.13
2022-07-31T01:34:37.982Z,17.80
2022-07-31T01:37:14.934Z,16.75
2022-07-31T01:39:51.510Z,16.75
2022-07-31T01:42:24.024Z,16.35
2022-07-31T01:45:00.574Z,16.08
2022-07-31T01:47:32.717Z,17.65
2022-07-31T01:50:04.774Z,16.27
2022-07-31T01:52:35.351Z,16.58
2022-07-31T01:55:06.042Z,16.65
2022-07-31T01:57:36.049Z,16.67
2022-07-31T02:00:33.556Z,17.27
2022-07-31T02:03:01.408Z,16.98
2022-07-31T02:05:39.571Z,16.73
2022-07-31T02:08:10.326Z,16.15
2022-07-31T02:10:40.663Z,16.25
2022-07-31T02:13:09.062Z,17.63
2022-07-31T02:15:39.698Z,16.10
2022-07-31T02:18:10.782Z,17.17
2022-07-31T02:20:41.603Z,17.60
2022-07-31T02:23:10.332Z,17.52
2022-07-31T02:25:40.111Z,16.75
2022-07-31T02:28:13.315Z,17.33
2022-07-31T02:30:46.173Z,17.77
2022-07-31T02:33:21.236Z,17.13
2022-07-31T02:35:52.362Z,17.88
2022-07-31T02:38:23.982Z,16.80
2022-07-31T02:40:55.764Z,17.10
2022-07-31T02:43:25.593Z,16.63
2022-07-31T02:45:55.914Z,16.92
2022-07-31T02:48:25.798Z,16.98
2022-07-31T02:50:54.626Z,17.38
2022-07-31T02:53:23.320Z,16.50
2022-07-31T02:55:52.743Z,16.30
2022-07-31T02:58:20.959Z,17.00
2022-07-31T03:00:49.269Z,16.67
2022-07-31T03:03:18.811Z,16.63
2022-07-31T03:05:46.945Z,18.02
2022-07-31T03:08:15.113Z,18.73
2022-07-31T03:10:43.293Z,18.02
2022-07-31T03:13:14.035Z,16.60
2022-07-31T03:15:50.296Z,18.75
2022-07-31T03:18:22.066Z,17.45
2022-07-31T03:20:52.684Z,18.75
2022-07-31T03:23:23.867Z,18.60
2022-07-31T03:25:53.716Z,19.77
2022-07-31T03:28:23.100Z,19.80
2022-07-31T03:30:55.100Z,19.15
2022-07-31T03:33:25.815Z,20.05
2022-07-31T03:35:55.599Z,17.65
2022-07-31T03:38:41.860Z,19.38
2022-07-31T03:41:11.945Z,19.33
2022-07-31T03:43:44.150Z,19.98
2022-07-31T03:46:19.604Z,19.20
2022-07-31T03:48:52.337Z,18.88
2022-07-31T03:51:21.489Z,19.88
2022-07-31T03:53:51.609Z,19.73
2022-07-31T03:56:21.077Z,18.65
2022-07-31T03:58:52.430Z,17.73
2022-07-31T04:01:22.268Z,19.17
2022-07-31T04:04:00.211Z,18.75
2022-07-31T04:06:28.432Z,18.33
2022-07-31T04:08:56.560Z,19.13
2022-07-31T04:11:24.644Z,20.13
2022-07-31T04:13:52.714Z,18.90
2022-07-31T04:16:20.799Z,19.48
2022-07-31T04:18:51.130Z,17.42
2022-07-31T04:21:21.244Z,18.52
2022-07-31T04:23:50.350Z,21.02
2022-07-31T04:26:19.836Z,18.85
2022-07-31T04:28:54.126Z,18.65
2022-07-31T04:31:22.207Z,19.00
2022-07-31T04:33:55.947Z,18.38
2022-07-31T04:36:30.342Z,18.85
2022-07-31T04:38:59.769Z,19.58
2022-07-31T04:41:28.722Z,17.55
2022-07-31T04:43:58.286Z,17.15
2022-07-31T04:46:26.622Z,18.45
2022-07-31T04:48:54.806Z,18.45
2022-07-31T04:51:25.499Z,19.10
2022-07-31T04:53:54.057Z,18.35
2022-07-31T04:56:35.912Z,18.45
2022-07-31T04:59:08.251Z,18.38
2022-07-31T05:01:37.403Z,18.05
2022-07-31T05:04:07.243Z,16.50
2022-07-31T05:06:39.444Z,15.07
2022-07-31T05:09:13.633Z,11.75
2022-07-31T05:11:47.084Z,11.10
2022-07-31T05:14:18.732Z,11.25
2022-07-31T05:16:47.257Z,10.23
2022-07-31T05:19:15.438Z,11.20
2022-07-31T05:21:53.036Z,10.90
2022-07-31T05:24:32.681Z,11.20
2022-07-31T05:27:02.943Z,11.20
2022-07-31T05:29:31.616Z,10.13
2022-07-31T05:32:01.099Z,10.65
2022-07-31T05:34:30.765Z,11.45
2022-07-31T05:37:02.188Z,11.18
2022-07-31T05:39:30.693Z,11.38
2022-07-31T05:41:59.231Z,11.60
2022-07-31T05:44:27.407Z,11.77
2022-07-31T05:49:24.049Z,11.88
2022-07-31T05:51:54.344Z,11.35
2022-07-31T05:54:24.055Z,11.88
2022-07-31T05:56:52.154Z,12.38
2022-07-31T05:59:20.278Z,12.45
2022-07-31T06:01:48.425Z,10.35
2022-07-31T06:04:16.553Z,11.98
2022-07-31T06:06:44.704Z,12.40
2022-07-31T06:09:13.315Z,12.45
2022-07-31T06:11:42.834Z,11.15
2022-07-31T06:14:11.018Z,10.60
2022-07-31T06:16:39.132Z,10.73
2022-07-31T06:19:07.229Z,10.25
2022-07-31T06:21:35.326Z,10.65
2022-07-31T06:24:03.531Z,12.40
2022-07-31T06:26:31.747Z,9.23
2022-07-31T06:29:01.781Z,10.70
2022-07-31T06:31:29.983Z,9.90
2022-07-31T06:33:58.104Z,9.95
2022-07-31T06:36:26.155Z,9.90
2022-07-31T06:38:54.324Z,9.02
2022-07-31T06:41:36.327Z,9.77
2022-07-31T06:44:05.803Z,9.63
2022-07-31T06:46:33.966Z,9.93
2022-07-31T06:49:04.505Z,9.50
2022-07-31T06:51:36.849Z,9.98
2022-07-31T06:54:08.231Z,10.18
2022-07-31T06:56:38.437Z,10.57
2022-07-31T06:59:08.869Z,9.20
2022-07-31T07:01:37.013Z,10.52
2022-07-31T07:04:05.342Z,9.77
2022-07-31T07:06:33.519Z,9.60
2022-07-31T07:09:01.645Z,9.48
2022-07-31T07:11:29.713Z,9.50
2022-07-31T07:13:57.878Z,8.48
2022-07-31T07:16:27.280Z,9.52
2022-07-31T07:18:56.056Z,10.20
2022-07-31T07:21:24.308Z,11.43
2022-07-31T07:23:52.356Z,9.70
2022-07-31T07:26:20.849Z,10.95
2022-07-31T07:28:48.920Z,9.60
2022-07-31T07:31:16.943Z,9.73
2022-07-31T07:33:47.730Z,10.23
2022-07-31T07:36:23.341Z,10.93
2022-07-31T07:38:55.055Z,9.95
2022-07-31T07:41:24.881Z,10.93
2022-07-31T07:43:53.490Z,10.38
2022-07-31T07:46:23.164Z,8.85
2022-07-31T07:48:53.274Z,9.90
2022-07-31T07:51:22.397Z,9.95
2022-07-31T07:53:50.570Z,10.05
2022-07-31T07:56:19.251Z,9.68
2022-07-31T07:58:49.068Z,9.43
2022-07-31T08:01:18.004Z,8.82
2022-07-31T08:03:50.030Z,8.88
2022-07-31T08:06:22.532Z,8.75
2022-07-31T08:08:51.282Z,8.52
2022-07-31T08:11:22.541Z,9.50
2022-07-31T08:13:51.436Z,10.27
2022-07-31T08:16:20.710Z,8.57
2022-07-31T08:18:49.640Z,9.30
2022-07-31T08:21:17.785Z,9.82
2022-07-31T08:23:47.370Z,7.78
2022-07-31T08:26:15.565Z,8.93
2022-07-31T08:28:50.401Z,8.02
2022-07-31T08:31:20.434Z,9.20
2022-07-31T08:33:48.595Z,7.75
2022-07-31T08:36:16.777Z,9.70
2022-07-31T08:38:47.187Z,9.52
2022-07-31T08:41:15.753Z,8.40
2022-07-31T08:44:03.026Z,8.55
2022-07-31T08:46:34.028Z,9.27
2022-07-31T08:49:04.432Z,9.38
2022-07-31T08:51:51.364Z,8.93
2022-07-31T08:54:26.153Z,9.05
2022-07-31T08:56:55.110Z,8.30
2022-07-31T08:59:23.290Z,8.05
2022-07-31T09:01:52.988Z,7.93
2022-07-31T09:04:21.155Z,8.30
2022-07-31T09:06:49.283Z,7.60
2022-07-31T09:09:18.637Z,7.60
2022-07-31T09:11:53.822Z,8.85
2022-07-31T09:14:32.172Z,7.68
2022-07-31T09:17:00.410Z,7.30
2022-07-31T09:19:51.982Z,6.90
2022-07-31T09:22:24.587Z,7.45
2022-07-31T09:24:53.508Z,7.18
2022-07-31T09:27:29.688Z,7.43
2022-07-31T09:29:58.550Z,6.32
2022-07-31T09:32:26.629Z,6.50
2022-07-31T09:34:54.680Z,7.20
2022-07-31T09:37:27.322Z,7.20
2022-07-31T09:39:57.540Z,7.18
2022-07-31T09:42:38.805Z,7.28
2022-07-31T09:45:22.998Z,7.50
2022-07-31T09:48:05.775Z,8.77
2022-07-31T09:50:34.629Z,7.57
2022-07-31T09:53:03.297Z,7.70
2022-07-31T09:55:31.459Z,6.68
2022-07-31T09:58:02.992Z,6.82
2022-07-31T10:00:31.558Z,5.70
2022-07-31T10:03:01.862Z,6.03
2022-07-31T10:05:31.458Z,6.43
2022-07-31T10:08:01.698Z,6.82
2022-07-31T10:10:31.811Z,5.60
2022-07-31T10:13:09.030Z,4.60
2022-07-31T10:15:41.568Z,3.95
2022-07-31T10:18:11.006Z,5.28
2022-07-31T10:20:43.032Z,4.93
2022-07-31T10:23:16.909Z,5.03
2022-07-31T10:25:55.577Z,4.55
2022-07-31T10:28:26.594Z,4.53
2022-07-31T10:30:54.821Z,10.55
2022-07-31T10:33:43.130Z,5.28
2022-07-31T10:36:20.837Z,4.65
2022-07-31T10:39:00.067Z,4.43
2022-07-31T10:41:47.964Z,4.35
2022-07-31T10:44:28.829Z,5.32
2022-07-31T10:46:57.813Z,4.63
2022-07-31T10:49:41.021Z,3.92
2022-07-31T10:52:09.546Z,4.35
2022-07-31T10:54:42.758Z,3.85
2022-07-31T10:57:22.569Z,4.50
2022-07-31T10:59:52.099Z,4.22
2022-07-31T11:02:31.300Z,4.60
2022-07-31T11:05:14.309Z,3.85
2022-07-31T11:07:44.297Z,3.70
2022-07-31T11:10:16.330Z,4.32
2022-07-31T11:12:45.466Z,2.83
2022-07-31T11:15:26.144Z,3.28
2022-07-31T11:18:21.354Z,4.10
2022-07-31T11:20:46.654Z,3.63
2022-07-31T11:23:17.452Z,6.22
2022-07-31T11:25:47.509Z,3.55
2022-07-31T11:28:21.445Z,4.53
2022-07-31T11:30:54.077Z,3.97
2022-07-31T11:33:41.828Z,3.55
2022-07-31T11:36:13.371Z,4.20
2022-07-31T11:38:46.079Z,3.30
2022-07-31T11:41:16.315Z,4.38
2022-07-31T11:43:46.086Z,3.45
2022-07-31T11:46:20.695Z,4.18
2022-07-31T11:48:48.785Z,3.67
2022-07-31T11:51:21.641Z,3.22
2022-07-31T11:53:57.418Z,3.38
2022-07-31T11:56:28.459Z,3.60
2022-07-31T11:58:59.524Z,3.70
2022-07-31T12:01:30.437Z,3.35
2022-07-31T12:04:09.067Z,3.22
2022-07-31T12:06:38.235Z,3.63
2022-07-31T12:09:06.600Z,3.40
2022-07-31T12:11:34.882Z,2.90
2022-07-31T12:14:03.076Z,3.17
2022-07-31T12:16:41.930Z,3.00
2022-07-31T12:19:10.167Z,3.33
2022-07-31T12:21:40.688Z,2.95
2022-07-31T12:24:13.084Z,3.00
2022-07-31T12:26:49.967Z,2.90
2022-07-31T12:29:18.283Z,3.10
2022-07-31T12:31:50.263Z,2.65
2022-07-31T12:34:29.469Z,3.72
2022-07-31T12:37:02.663Z,2.80
2022-07-31T12:39:53.827Z,2.55
2022-07-31T12:42:31.234Z,2.63
2022-07-31T12:45:18.526Z,2.55
2022-07-31T12:47:54.350Z,1.90
2022-07-31T12:50:23.476Z,1.85
2022-07-31T12:52:51.659Z,2.08
2022-07-31T12:55:20.164Z,2.40
2022-07-31T12:57:51.218Z,2.65
2022-07-31T13:00:22.656Z,1.92
2022-07-31T13:02:53.671Z,2.00
2022-07-31T13:05:22.191Z,5.75
2022-07-31T13:07:50.961Z,1.95
2022-07-31T13:10:23.801Z,2.28
2022-07-31T13:12:53.877Z,2.22
2022-07-31T13:15:29.605Z,6.22
2022-07-31T13:18:01.860Z,2.55
2022-07-31T13:20:30.974Z,2.20
2022-07-31T13:23:00.134Z,2.55
2022-07-31T13:25:31.278Z,3.25
2022-07-31T13:27:59.908Z,2.28
2022-07-31T13:30:28.725Z,2.15
2022-07-31T13:32:58.037Z,2.90
2022-07-31T13:35:28.371Z,2.20
2022-07-31T13:37:57.346Z,2.13
2022-07-31T13:40:39.939Z,2.50
2022-07-31T13:43:08.110Z,2.53
2022-07-31T13:45:36.281Z,2.08
2022-07-31T13:48:09.291Z,2.25
2022-07-31T13:50:39.498Z,2.42
2022-07-31T13:53:07.771Z,2.95
2022-07-31T13:55:35.904Z,3.05
2022-07-31T13:58:04.102Z,2.38
2022-07-31T14:00:32.872Z,2.83
2022-07-31T14:03:01.055Z,2.00
2022-07-31T14:05:37.298Z,2.22
2022-07-31T14:08:32.946Z,3.55
2022-07-31T14:10:57.222Z,2.80
2022-07-31T14:13:25.842Z,2.42
2022-07-31T14:15:53.861Z,2.50
2022-07-31T14:18:23.133Z,2.60
2022-07-31T14:20:52.854Z,2.85
2022-07-31T14:23:21.559Z,2.60
2022-07-31T14:26:03.395Z,3.67
2022-07-31T14:28:31.476Z,2.70
2022-07-31T14:30:59.518Z,3.50
2022-07-31T14:33:27.522Z,2.65
2022-07-31T14:35:56.998Z,4.25
2022-07-31T14:38:26.979Z,2.72
2022-07-31T14:40:56.017Z,2.75
2022-07-31T14:43:24.154Z,4.35
2022-07-31T14:45:52.478Z,2.95
2022-07-31T14:48:21.867Z,2.47
2022-07-31T14:50:49.946Z,3.10
2022-07-31T14:53:19.375Z,2.40
2022-07-31T14:55:47.683Z,2.97
2022-07-31T14:58:15.818Z,4.35
2022-07-31T15:00:44.120Z,3.28
2022-07-31T15:03:12.143Z,2.72
2022-07-31T15:06:41.220Z,2.53
2022-07-31T15:08:31.299Z,3.45
2022-07-31T15:10:59.299Z,2.35
2022-07-31T15:13:27.375Z,2.67
2022-07-31T15:15:55.552Z,5.18
2022-07-31T15:18:25.887Z,2.30
2022-07-31T15:20:54.255Z,2.70
2022-07-31T15:23:22.496Z,3.03
2022-07-31T15:25:51.989Z,2.30
2022-07-31T15:28:20.130Z,4.68
2022-07-31T15:30:48.143Z,2.67
2022-07-31T15:33:16.175Z,2.38
2022-07-31T15:35:44.141Z,2.92
2022-07-31T15:38:12.149Z,2.80
2022-07-31T15:40:40.293Z,2.60
2022-07-31T15:43:09.735Z,3.30
2022-07-31T15:45:37.856Z,2.78
2022-07-31T15:48:10.147Z,2.72
2022-07-31T15:50:39.031Z,3.92
2022-07-31T15:53:07.165Z,4.43
2022-07-31T15:55:35.370Z,2.63
2022-07-31T15:58:03.427Z,3.85
2022-07-31T16:00:32.850Z,4.18
2022-07-31T16:03:01.769Z,2.83
2022-07-31T16:05:36.592Z,3.45
2022-07-31T16:08:32.748Z,5.95
2022-07-31T16:10:57.085Z,3.00
2022-07-31T16:13:25.809Z,2.65
2022-07-31T16:15:55.603Z,2.60
2022-07-31T16:18:23.684Z,2.70
2022-07-31T16:20:51.808Z,2.60
2022-07-31T16:23:19.886Z,2.80
2022-07-31T16:25:48.176Z,3.28
2022-07-31T16:28:16.280Z,3.70
2022-07-31T16:30:45.579Z,3.17
2022-07-31T16:33:15.493Z,2.88
2022-07-31T16:35:43.799Z,2.40
2022-07-31T16:38:11.917Z,2.47
2022-07-31T16:40:39.965Z,3.28
2022-07-31T16:43:49.272Z,3.08
2022-07-31T16:45:57.542Z,2.35
2022-07-31T16:48:26.947Z,3.05
2022-07-31T16:50:55.334Z,3.50
2022-07-31T16:54:10.048Z,2.97
2022-07-31T16:56:12.698Z,2.05
2022-07-31T16:58:41.046Z,2.30
2022-07-31T17:01:53.163Z,3.38
2022-07-31T17:04:03.154Z,2.08
2022-07-31T17:06:36.978Z,2.58
2022-07-31T17:09:16.835Z,2.78
2022-07-31T17:11:48.774Z,2.47
2022-07-31T17:14:18.831Z,2.00
2022-07-31T17:16:49.359Z,2.00
2022-07-31T17:19:36.191Z,4.28
2022-07-31T17:22:11.257Z,3.28
2022-07-31T17:24:40.916Z,2.97
2022-07-31T17:27:10.773Z,3.40
2022-07-31T17:29:39.623Z,2.70
2022-07-31T17:32:07.723Z,2.70
2022-07-31T17:34:37.481Z,4.45
2022-07-31T17:37:06.932Z,4.03
2022-07-31T17:39:35.926Z,3.25
2022-07-31T17:42:04.204Z,2.78
2022-07-31T17:44:32.261Z,4.75
2022-07-31T17:47:00.315Z,2.70
2022-07-31T17:49:33.540Z,2.60
2022-07-31T17:52:03.128Z,2.80
2022-07-31T17:54:32.556Z,2.63
2022-07-31T17:57:01.319Z,5.47
2022-07-31T17:59:30.173Z,2.85
2022-07-31T18:02:00.771Z,3.60
2022-07-31T18:04:29.717Z,3.78
2022-07-31T18:06:58.506Z,2.70
2022-07-31T18:09:29.688Z,3.85
2022-07-31T18:11:58.641Z,2.25
2022-07-31T18:14:27.177Z,3.03
2022-07-31T18:16:55.475Z,3.03
2022-07-31T18:19:24.033Z,3.28
2022-07-31T18:21:53.555Z,3.80
2022-07-31T18:24:22.342Z,3.17
2022-07-31T18:26:54.752Z,3.53
2022-07-31T18:29:23.094Z,3.97
2022-07-31T18:31:51.415Z,4.93
2022-07-31T18:34:19.535Z,3.10
2022-07-31T18:36:54.225Z,3.65
2022-07-31T18:39:23.585Z,3.17
2022-07-31T18:41:53.434Z,3.65
2022-07-31T18:44:21.965Z,3.00
2022-07-31T18:46:50.167Z,3.75
2022-07-31T18:51:00.668Z,3.25
2022-07-31T18:52:07.351Z,3.15
2022-07-31T18:54:35.811Z,3.70
2022-07-31T18:57:06.572Z,3.97
2022-07-31T18:59:34.973Z,3.40
2022-07-31T19:02:04.732Z,4.07
2022-07-31T19:04:34.095Z,3.60
2022-07-31T19:07:02.144Z,3.70
2022-07-31T19:09:30.428Z,3.95
2022-07-31T19:11:58.982Z,3.53
2022-07-31T19:14:28.505Z,4.25
2022-07-31T19:16:59.800Z,4.03
2022-07-31T19:19:54.248Z,4.10
2022-07-31T19:22:17.200Z,4.30
2022-07-31T19:24:45.346Z,4.53
2022-07-31T19:27:13.507Z,3.75
2022-07-31T19:29:42.975Z,4.45
2022-07-31T19:32:11.476Z,4.15
2022-07-31T19:34:39.635Z,4.28
2022-07-31T19:37:10.296Z,4.47
2022-07-31T19:39:38.322Z,3.50
2022-07-31T19:42:11.767Z,3.50
2022-07-31T19:44:41.698Z,3.55
2022-07-31T19:47:10.024Z,3.53
2022-07-31T19:49:38.625Z,4.00
2022-07-31T19:52:09.385Z,4.53
2022-07-31T19:54:37.535Z,4.20
2022-07-31T19:57:06.147Z,5.30
2022-07-31T19:59:34.339Z,3.42
2022-07-31T20:02:04.136Z,3.40
2022-07-31T20:04:32.291Z,3.30
2022-07-31T20:07:00.288Z,4.10
2022-07-31T20:09:30.120Z,3.30
2022-07-31T20:11:58.169Z,3.75
2022-07-31T20:14:26.375Z,3.55
2022-07-31T20:16:54.353Z,3.67
2022-07-31T20:19:23.717Z,3.70
2022-07-31T20:21:51.667Z,3.58
2022-07-31T20:24:19.751Z,5.60
2022-07-31T20:26:48.452Z,3.55
2022-07-31T20:29:16.543Z,6.65
2022-07-31T20:31:44.502Z,6.65
2022-07-31T20:34:12.564Z,5.75
2022-07-31T20:36:42.045Z,4.40
2022-07-31T20:39:10.210Z,3.92
2022-07-31T20:41:38.519Z,4.18
2022-07-31T20:44:06.976Z,3.70
2022-07-31T20:46:35.104Z,5.07
2022-07-31T20:49:03.215Z,3.97
2022-07-31T20:51:31.295Z,3.80
2022-07-31T20:54:00.635Z,4.10
2022-07-31T20:56:28.677Z,4.00
2022-07-31T20:58:56.689Z,4.00
2022-07-31T21:01:26.069Z,3.50
2022-07-31T21:03:55.014Z,3.88
2022-07-31T21:06:24.219Z,3.55
2022-07-31T21:08:52.210Z,3.63
2022-07-31T21:11:21.541Z,3.45
2022-07-31T21:13:59.576Z,3.72
2022-07-31T21:16:27.719Z,4.38
2022-07-31T21:18:56.155Z,3.80
2022-07-31T21:21:24.883Z,3.90
2022-07-31T21:23:52.991Z,3.60
2022-07-31T21:26:27.822Z,3.58
2022-07-31T21:28:56.754Z,3.20
2022-07-31T21:31:25.441Z,3.67
2022-07-31T21:33:54.075Z,3.30
2022-07-31T21:36:22.758Z,3.83
2022-07-31T21:38:51.679Z,4.07
2022-07-31T21:41:20.281Z,3.45
2022-07-31T21:43:59.178Z,3.85
2022-07-31T21:46:30.317Z,3.30
2022-07-31T21:48:59.666Z,3.75
2022-07-31T21:51:28.636Z,3.05
2022-07-31T21:53:56.655Z,3.53
2022-07-31T21:56:24.813Z,3.45
2022-07-31T21:58:54.173Z,3.42
2022-07-31T22:01:22.573Z,3.75
2022-07-31T22:03:50.758Z,3.63
2022-07-31T22:06:36.712Z,4.15
2022-07-31T22:09:05.057Z,3.70
2022-07-31T22:11:33.730Z,3.65
2022-07-31T22:14:03.147Z,4.57
2022-07-31T22:16:31.185Z,3.88
2022-07-31T22:19:00.932Z,3.90
2022-07-31T22:21:29.554Z,3.97
2022-07-31T22:23:58.383Z,4.75
2022-07-31T22:26:27.218Z,5.68
2022-07-31T22:28:56.413Z,3.90
2022-07-31T22:31:26.503Z,4.13
2022-07-31T22:33:54.999Z,3.83
2022-07-31T22:36:26.149Z,4.00
2022-07-31T22:38:54.481Z,3.97
2022-07-31T22:41:22.852Z,3.80
2022-07-31T22:44:12.090Z,4.20
2022-07-31T22:46:41.088Z,4.47
2022-07-31T22:49:10.625Z,4.13
2022-07-31T22:51:40.173Z,4.40
2022-07-31T22:54:10.718Z,4.82
2022-07-31T22:56:38.938Z,4.20
2022-07-31T22:59:08.801Z,4.47
2022-07-31T23:01:36.890Z,4.60
2022-07-31T23:04:06.715Z,5.05
2022-07-31T23:06:34.833Z,4.38
2022-07-31T23:09:03.216Z,4.25
2022-07-31T23:11:31.614Z,4.45
2022-07-31T23:13:59.866Z,4.93
2022-07-31T23:16:28.445Z,4.53
2022-07-31T23:18:56.607Z,4.80
2022-07-31T23:21:26.164Z,4.75
2022-07-31T23:23:54.714Z,6.05
2022-07-31T23:26:25.696Z,4.50
2022-07-31T23:28:55.765Z,5.38
2022-07-31T23:31:24.980Z,4.82
2022-07-31T23:33:53.746Z,5.05
2022-07-31T23:36:22.233Z,4.40
2022-07-31T23:38:51.799Z,4.63
2022-07-31T23:41:40.934Z,4.40
2022-07-31T23:44:10.531Z,4.75
2022-07-31T23:46:40.416Z,4.78
2022-07-31T23:49:09.750Z,4.25
2022-07-31T23:51:38.037Z,4.63
2022-07-31T23:54:08.266Z,4.80
2022-07-31T23:56:36.410Z,4.78
2022-07-31T23:59:04.673Z,4.65
